Time;durP1;ratioP1;P1;durP2;ratioP2;P2;SDS_P1;SDS_P2;PMS_P1;PMS_P2;Temp;Humidity;BMP_temperature;BMP_pressure;BME280_temperature;BME280_humidity;BME280_pressure;Samples;Min_cycle;Max_cycle;Signal;HPM_P1;HPM_P2
2023/09/07 00:01:04;;;;;;;13.20;6.77;;;;;;;16.52;61.49;101203.30;124287;1100;104728;-76
2023/09/07 00:03:41;;;;;;;14.70;6.10;;;;;;;16.50;62.71;101197.08;124929;1100;101825;-76
2023/09/07 00:06:13;;;;;;;11.80;6.10;;;;;;;16.48;62.72;101192.59;124323;1102;104252;-76
2023/09/07 00:08:44;;;;;;;11.77;5.80;;;;;;;16.45;62.92;101195.17;124280;1102;102042;-75
2023/09/07 00:11:16;;;;;;;17.83;6.13;;;;;;;16.41;62.15;101190.66;124402;1102;104702;-75
2023/09/07 00:13:47;;;;;;;14.33;6.77;;;;;;;16.39;62.56;101195.92;124271;1102;104188;-76
2023/09/07 00:16:19;;;;;;;14.20;6.47;;;;;;;16.38;62.69;101196.80;124341;1102;103090;-75
2023/09/07 00:18:53;;;;;;;14.77;6.77;;;;;;;16.35;63.40;101192.31;124338;1102;104220;-76
2023/09/07 00:21:25;;;;;;;14.73;7.33;;;;;;;16.35;63.28;101202.02;124306;1102;102681;-75
2023/09/07 00:23:56;;;;;;;17.63;6.60;;;;;;;16.33;63.25;101201.07;124350;1102;101925;-76
2023/09/07 00:26:27;;;;;;;15.23;6.70;;;;;;;16.31;63.26;101206.37;124315;1101;104210;-75
2023/09/07 00:28:59;;;;;;;14.57;6.43;;;;;;;16.27;63.47;101199.20;124378;1102;102004;-75
2023/09/07 00:31:30;;;;;;;12.70;6.17;;;;;;;16.23;63.38;101197.32;124338;1102;102009;-75
2023/09/07 00:34:01;;;;;;;15.53;6.63;;;;;;;16.23;63.26;101209.67;124231;1102;104198;-76
2023/09/07 00:36:33;;;;;;;15.37;6.50;;;;;;;16.18;63.35;101202.51;124337;1102;101963;-76
2023/09/07 00:39:04;;;;;;;13.30;6.63;;;;;;;16.14;63.75;101200.67;124339;1102;101942;-76
2023/09/07 00:41:36;;;;;;;14.07;6.40;;;;;;;16.10;64.48;101196.14;124258;1099;104217;-76
2023/09/07 00:44:07;;;;;;;15.13;6.57;;;;;;;16.08;64.40;101195.22;124342;1102;104242;-76
2023/09/07 00:46:39;;;;;;;13.30;6.00;;;;;;;16.04;64.56;101200.41;124325;1102;104454;-76
2023/09/07 00:49:10;;;;;;;16.57;7.17;;;;;;;16.00;64.78;101194.12;124342;1102;104223;-76
2023/09/07 00:51:42;;;;;;;12.00;6.53;;;;;;;15.99;64.37;101193.23;124373;1099;104646;-76
2023/09/07 00:54:13;;;;;;;15.75;7.10;;;;;;;15.96;64.84;101197.56;124391;1102;101915;-76
2023/09/07 00:56:45;;;;;;;13.30;6.23;;;;;;;15.93;64.76;101190.44;124318;1099;104175;-76
2023/09/07 00:59:17;;;;;;;15.33;6.27;;;;;;;15.92;65.35;101187.75;124262;1099;104242;-76
2023/09/07 01:01:49;;;;;;;12.90;6.17;;;;;;;15.92;65.23;101190.39;124416;1101;104258;-76
2023/09/07 01:04:20;;;;;;;14.00;6.40;;;;;;;15.92;64.42;101195.69;124399;1102;104217;-76
2023/09/07 01:06:59;;;;;;;14.37;6.57;;;;;;;15.90;64.81;101187.71;124392;1102;104326;-76
2023/09/07 01:09:35;;;;;;;13.73;6.00;;;;;;;15.89;65.85;101195.61;124398;1102;104201;-77
2023/09/07 01:12:10;;;;;;;14.03;6.43;;;;;;;15.87;65.61;101192.05;124442;1099;102393;-77
2023/09/07 01:14:41;;;;;;;12.60;6.20;;;;;;;15.86;65.77;101188.48;124472;1099;104252;-76
2023/09/07 01:17:13;;;;;;;14.70;6.63;;;;;;;15.84;65.53;101187.55;125763;1098;104178;-76
2023/09/07 01:19:47;;;;;;;13.20;6.33;;;;;;;15.83;66.38;101191.05;124402;1099;104364;-76
2023/09/07 01:22:20;;;;;;;12.80;6.17;;;;;;;15.79;65.58;101191.84;124402;1099;101926;-76
2023/09/07 01:24:51;;;;;;;;;;;;;;;15.75;66.95;101189.94;124293;1099;104236;-75
2023/09/07 01:27:22;;;;;;;13.43;6.30;;;;;;;15.72;66.08;101190.77;124404;1099;104163;-77
2023/09/07 01:29:54;;;;;;;13.40;6.30;;;;;;;15.69;66.45;101197.71;124404;1099;101913;-76
2023/09/07 01:32:27;;;;;;;15.20;6.67;;;;;;;15.64;65.71;101198.51;124329;1099;104192;-76
2023/09/07 01:35:00;;;;;;;13.97;6.50;;;;;;;15.61;65.96;101194.86;124446;1099;104318;-77
2023/09/07 01:37:31;;;;;;;14.18;6.03;;;;;;;15.58;66.33;101194.78;124399;1098;104211;-76
2023/09/07 01:40:07;;;;;;;14.10;6.10;;;;;;;15.57;67.81;101195.66;124493;1099;104082;-75
2023/09/07 01:42:38;;;;;;;13.57;7.10;;;;;;;15.54;68.48;101195.58;124402;1102;104188;-77
2023/09/07 01:45:11;;;;;;;14.67;6.43;;;;;;;15.50;68.04;101191.05;124450;1102;102487;-76
2023/09/07 01:47:42;;;;;;;14.07;6.33;;;;;;;15.46;67.79;101205.95;124476;1102;104620;-76
2023/09/07 01:50:14;;;;;;;14.75;6.40;;;;;;;15.43;67.87;101196.17;124377;1102;102192;-76
2023/09/07 01:52:49;;;;;;;14.60;6.60;;;;;;;15.41;68.43;101200.54;124405;1099;104226;-75
2023/09/07 01:55:20;;;;;;;11.37;6.00;;;;;;;15.38;68.52;101203.09;124446;1100;104173;-76
2023/09/07 01:57:51;;;;;;;12.97;6.27;;;;;;;15.35;68.92;101203.02;124346;1099;104169;-76
2023/09/07 02:00:23;;;;;;;14.67;6.40;;;;;;;15.32;68.92;101207.30;124329;1099;102092;-76
2023/09/07 02:02:54;;;;;;;16.50;6.90;;;;;;;15.28;68.99;101203.69;124331;1099;102639;-76
2023/09/07 02:05:25;;;;;;;14.07;6.57;;;;;;;15.24;69.21;101205.36;124446;1099;104316;-76
2023/09/07 02:07:57;;;;;;;13.07;6.40;;;;;;;15.20;70.40;101199.95;124426;1099;104194;-75
2023/09/07 02:10:28;;;;;;;14.47;6.27;;;;;;;15.16;69.98;101208.62;124470;1099;104166;-76
2023/09/07 02:13:00;;;;;;;14.20;6.33;;;;;;;15.12;69.86;101206.77;124406;1102;104280;-76
2023/09/07 02:15:31;;;;;;;12.37;6.37;;;;;;;15.06;70.46;101203.08;124381;1099;102101;-76
2023/09/07 02:18:04;;;;;;;15.50;6.77;;;;;;;15.02;71.44;101209.16;124342;1099;104159;-75
2023/09/07 02:20:36;;;;;;;13.98;6.78;;;;;;;14.98;71.30;101211.66;124385;1099;104313;-76
2023/09/07 02:23:07;;;;;;;13.17;6.57;;;;;;;14.93;71.75;101206.24;124436;1099;101975;-75
2023/09/07 02:25:39;;;;;;;14.63;6.77;;;;;;;14.91;71.38;101213.20;124364;1099;104245;-76
2023/09/07 02:28:10;;;;;;;14.90;6.80;;;;;;;14.87;71.64;101212.23;124437;1102;102037;-76
2023/09/07 02:30:41;;;;;;;12.77;6.23;;;;;;;14.83;70.59;101207.70;124376;1099;102030;-75
2023/09/07 02:33:13;;;;;;;13.97;7.17;;;;;;;14.83;71.25;101209.45;124425;1099;102017;-75
2023/09/07 02:35:44;;;;;;;16.57;6.83;;;;;;;14.83;71.82;101217.38;124493;1102;104238;-76
2023/09/07 02:38:16;;;;;;;15.40;6.77;;;;;;;14.80;71.51;101207.60;124395;1099;101985;-75
2023/09/07 02:40:48;;;;;;;13.47;6.60;;;;;;;14.77;72.24;101206.63;124266;1102;104169;-76
2023/09/07 02:43:19;;;;;;;14.70;6.80;;;;;;;14.74;72.17;101210.98;124396;1099;101842;-76
2023/09/07 02:45:51;;;;;;;16.63;6.37;;;;;;;14.72;70.98;101203.84;124540;1100;104223;-76
2023/09/07 02:48:22;;;;;;;15.97;6.53;;;;;;;14.70;71.78;101209.08;124361;1102;102132;-76
2023/09/07 02:50:54;;;;;;;17.60;7.23;;;;;;;14.69;72.68;101204.67;124390;1102;104236;-75
2023/09/07 02:53:27;;;;;;;15.83;6.37;;;;;;;14.68;72.12;101209.91;124363;1099;104248;-75
2023/09/07 02:55:58;;;;;;;13.07;6.37;;;;;;;14.68;72.43;101207.27;124399;1099;104169;-75
2023/09/07 02:58:30;;;;;;;12.27;6.07;;;;;;;14.65;72.22;101202.77;124442;1099;104253;-76
2023/09/07 03:01:06;;;;;;;12.03;6.27;;;;;;;14.66;72.32;101206.30;124458;1099;104235;-75
2023/09/07 03:03:37;;;;;;;14.90;6.90;;;;;;;14.65;73.13;101205.41;124359;1102;104194;-76
2023/09/07 03:06:13;;;;;;;14.47;6.40;;;;;;;14.66;73.16;101208.94;124407;1102;101926;-75
2023/09/07 03:08:46;;;;;;;12.57;6.23;;;;;;;14.66;72.04;101208.94;124552;1102;104303;-75
2023/09/07 03:11:17;;;;;;;17.23;6.40;;;;;;;14.67;72.47;101211.62;124456;1102;104297;-75
2023/09/07 03:13:49;;;;;;;13.97;6.70;;;;;;;14.66;72.93;101212.50;124492;1102;104265;-75
2023/09/07 03:16:21;;;;;;;14.03;6.83;;;;;;;14.65;72.51;101213.34;124419;1102;102913;-76
2023/09/07 03:18:52;;;;;;;15.27;6.70;;;;;;;14.63;73.15;101215.05;124387;1102;101923;-76
2023/09/07 03:21:29;;;;;;;14.30;6.47;;;;;;;14.62;72.75;101222.92;124409;1099;101932;-75
2023/09/07 03:24:00;;;;;;;12.33;6.43;;;;;;;14.61;72.86;101221.13;124333;1102;101890;-76
2023/09/07 03:26:32;;;;;;;12.73;6.23;;;;;;;14.59;72.44;101221.05;124434;1102;101827;-75
2023/09/07 03:29:04;;;;;;;15.27;7.00;;;;;;;14.58;72.81;101221.88;124384;1102;104302;-75
2023/09/07 03:31:35;;;;;;;14.03;6.50;;;;;;;14.58;73.47;101224.52;124338;1102;104323;-75
2023/09/07 03:34:07;;;;;;;16.33;6.97;;;;;;;14.56;72.93;101229.75;124353;1102;104172;-75
2023/09/07 03:36:38;;;;;;;14.00;6.50;;;;;;;14.54;72.59;101230.58;124400;1099;102330;-74
2023/09/07 03:39:09;;;;;;;15.37;6.77;;;;;;;14.52;73.28;101229.61;124396;1099;101896;-75
2023/09/07 03:41:41;;;;;;;13.87;6.30;;;;;;;14.49;72.59;101233.07;124599;1099;102054;-76
2023/09/07 03:44:12;;;;;;;15.90;6.60;;;;;;;14.46;72.74;101232.98;125066;1099;101842;-77
2023/09/07 03:46:43;;;;;;;14.53;6.80;;;;;;;14.46;73.29;101240.90;124646;1102;104114;-78
2023/09/07 03:49:15;;;;;;;11.27;5.83;;;;;;;14.45;73.08;101233.81;124568;1102;104159;-77
2023/09/07 03:51:46;;;;;;;14.93;6.70;;;;;;;14.46;74.01;101237.34;124606;1102;104274;-76
2023/09/07 03:54:18;;;;;;;14.67;6.97;;;;;;;14.47;73.65;101240.03;124563;1102;104699;-76
2023/09/07 03:56:49;;;;;;;15.63;7.00;;;;;;;14.49;72.58;101242.72;124431;1099;104316;-76
2023/09/07 03:59:20;;;;;;;14.83;6.83;;;;;;;14.50;73.11;101241.88;124535;1099;104169;-76
2023/09/07 04:01:51;;;;;;;15.20;7.20;;;;;;;14.50;73.49;101240.13;124523;1102;101845;-77
2023/09/07 04:04:24;;;;;;;16.93;7.47;;;;;;;14.51;73.25;101235.77;124547;1102;104201;-76
2023/09/07 04:06:55;;;;;;;17.90;7.17;;;;;;;14.52;74.07;101235.81;125688;1101;101922;-76
2023/09/07 04:09:27;;;;;;;16.80;7.73;;;;;;;14.55;73.61;101233.27;124616;1102;101907;-76
2023/09/07 04:12:00;;;;;;;16.23;7.40;;;;;;;14.60;74.13;101236.08;124618;1102;104221;-76
2023/09/07 04:14:32;;;;;;;14.97;7.00;;;;;;;14.62;73.61;101239.66;124572;1101;104278;-76
2023/09/07 04:17:04;;;;;;;15.67;8.13;;;;;;;14.64;73.67;101242.34;124547;1102;104269;-76
2023/09/07 04:19:35;;;;;;;19.90;7.90;;;;;;;14.65;75.03;101247.68;124540;1102;104186;-76
2023/09/07 04:22:07;;;;;;;16.23;7.50;;;;;;;14.67;74.04;101243.33;124493;1102;104169;-77
2023/09/07 04:24:38;;;;;;;17.03;7.20;;;;;;;14.71;74.44;101245.23;124567;1102;104166;-76
2023/09/07 04:27:09;;;;;;;16.90;7.33;;;;;;;14.74;74.64;101247.96;124308;1102;111607;-77
2023/09/07 04:29:41;;;;;;;16.63;7.00;;;;;;;14.77;74.94;101247.14;124389;1102;104268;-76
2023/09/07 04:32:13;;;;;;;15.97;7.23;;;;;;;14.80;74.44;101243.70;124398;1102;102028;-77
2023/09/07 04:34:44;;;;;;;15.50;7.00;;;;;;;14.86;73.91;101251.81;124465;1099;104374;-76
2023/09/07 04:37:16;;;;;;;16.80;7.60;;;;;;;14.90;74.01;101246.67;124993;1099;104271;-75
2023/09/07 04:39:47;;;;;;;15.00;6.83;;;;;;;14.94;74.22;101249.41;124519;1099;104168;-75
2023/09/07 04:42:19;;;;;;;17.20;7.23;;;;;;;14.96;74.57;101242.41;124685;1099;101909;-77
2023/09/07 04:44:50;;;;;;;18.33;7.10;;;;;;;15.00;74.98;101250.47;124585;1099;102490;-78
2023/09/07 04:47:22;;;;;;;14.33;7.10;;;;;;;15.02;74.85;101251.44;124488;1099;104348;-76
2023/09/07 04:49:53;;;;;;;15.17;6.83;;;;;;;15.03;73.98;101253.21;124477;1102;101929;-76
2023/09/07 04:52:26;;;;;;;14.67;7.03;;;;;;;15.06;74.75;101250.66;125271;1101;104238;-77
2023/09/07 04:54:58;;;;;;;17.30;7.40;;;;;;;15.13;74.01;101248.19;124351;1102;104230;-75
2023/09/07 04:57:30;;;;;;;14.33;7.30;;;;;;;15.21;74.05;101252.86;124542;1099;104176;-76
2023/09/07 05:00:03;;;;;;;17.57;6.93;;;;;;;15.29;74.71;101255.73;124505;1102;102093;-76
2023/09/07 05:02:38;;;;;;;19.13;6.90;;;;;;;15.37;74.40;101256.83;124506;1099;104395;-75
2023/09/07 05:05:11;;;;;;;18.53;7.47;;;;;;;15.43;74.39;101257.00;124395;1100;104225;-77
2023/09/07 05:07:42;;;;;;;14.60;6.73;;;;;;;15.48;74.05;101246.55;125768;1099;101804;-76
2023/09/07 05:10:14;;;;;;;17.80;6.75;;;;;;;15.55;73.47;101253.81;125677;1101;102287;-76
2023/09/07 05:12:46;;;;;;;15.97;7.40;;;;;;;15.63;73.66;101257.55;124397;1102;104263;-76
2023/09/07 05:15:18;;;;;;;15.83;6.50;;;;;;;15.69;74.24;101251.55;124463;1102;102437;-76
2023/09/07 05:17:49;;;;;;;19.15;6.95;;;;;;;15.77;73.48;101251.78;124427;1099;104283;-77
2023/09/07 05:20:24;;;;;;;17.80;7.20;;;;;;;15.86;73.45;101243.17;125764;1098;101974;-76
2023/09/07 05:22:59;;;;;;;16.40;6.70;;;;;;;15.93;73.51;101248.66;124411;1102;104198;-76
2023/09/07 05:25:32;;;;;;;14.77;6.50;;;;;;;16.02;73.42;101255.95;124214;1102;104211;-73
2023/09/07 05:28:05;;;;;;;16.30;6.90;;;;;;;16.08;73.08;101253.47;124163;1100;104197;-77
2023/09/07 05:30:39;;;;;;;15.80;6.97;;;;;;;16.17;72.88;101256.34;124319;1100;101958;-76
2023/09/07 05:33:15;;;;;;;20.47;6.97;;;;;;;16.28;72.95;101258.34;125515;1101;101904;-76
2023/09/07 05:35:46;;;;;;;16.00;6.47;;;;;;;16.38;72.99;101255.06;124387;1102;104230;-75
2023/09/07 05:38:18;;;;;;;16.00;6.90;;;;;;;16.45;72.94;101250.80;124382;1102;101893;-76
2023/09/07 05:40:54;;;;;;;15.43;6.78;;;;;;;16.50;72.29;101255.36;124187;1102;102255;-75
2023/09/07 05:43:40;;;;;;;15.90;6.43;;;;;;;16.58;72.32;101254.63;124305;1102;104166;-77
2023/09/07 05:46:18;;;;;;;18.80;7.00;;;;;;;16.63;71.83;101256.53;125160;1102;101843;-77
2023/09/07 05:48:54;;;;;;;15.50;7.00;;;;;;;16.71;72.02;101256.70;125509;1102;118539;-79
2023/09/07 05:51:26;;;;;;;17.07;6.63;;;;;;;16.82;71.70;101265.78;124585;1101;101998;-80
2023/09/07 05:54:08;;;;;;;21.80;7.33;;;;;;;16.95;72.14;101266.09;125517;1102;101926;-82
2023/09/07 05:56:40;;;;;;;18.17;6.40;;;;;;;17.07;71.34;101269.89;124714;1102;104176;-77
2023/09/07 05:59:12;;;;;;;20.63;6.53;;;;;;;17.17;71.33;101267.44;124332;1099;104194;-77
2023/09/07 06:01:44;;;;;;;17.03;6.70;;;;;;;17.29;71.35;101266.81;125686;1101;101906;-75
2023/09/07 06:04:16;;;;;;;16.93;6.53;;;;;;;17.40;71.20;101266.14;124589;1099;104182;-77
2023/09/07 06:06:57;;;;;;;17.10;7.03;;;;;;;17.50;71.35;101266.33;124484;1102;104169;-76
2023/09/07 06:09:28;;;;;;;19.13;7.37;;;;;;;17.59;70.98;101261.20;124492;1102;110768;-82
2023/09/07 06:12:05;;;;;;;22.07;7.20;;;;;;;17.72;71.00;101270.31;124446;1101;104238;-76
2023/09/07 06:14:37;;;;;;;15.27;6.83;;;;;;;17.82;71.10;101274.90;124468;1103;101971;-80
2023/09/07 06:17:08;;;;;;;22.87;7.07;;;;;;;17.92;70.59;101268.94;125862;1100;102067;-81
2023/09/07 06:19:42;;;;;;;18.80;7.37;;;;;;;18.09;70.58;101276.28;124788;1102;104304;-80
2023/09/07 06:22:14;;;;;;;18.50;7.13;;;;;;;18.24;70.72;101270.34;125426;1099;104169;-82
2023/09/07 06:24:52;;;;;;;18.33;7.20;;;;;;;18.41;70.68;101268.85;125541;1099;101841;-86
2023/09/07 06:27:28;;;;;;;19.50;6.80;;;;;;;18.54;69.70;101269.92;125661;1099;104284;-85
2023/09/07 06:30:14;;;;;;;18.33;7.43;;;;;;;18.67;70.31;101271.91;125148;1102;107486;-76
2023/09/07 06:33:04;;;;;;;14.83;6.90;;;;;;;18.82;69.29;101271.25;125285;1101;101830;-86
2023/09/07 06:36:03;;;;;;;19.17;7.20;;;;;;;18.99;69.07;101279.46;125165;1103;104447;-75
2023/09/07 06:38:52;;;;;;;22.13;7.90;;;;;;;19.14;68.33;101278.78;124616;1099;104245;-78
2023/09/07 06:41:26;;;;;;;18.20;6.80;;;;;;;19.29;68.99;101271.86;124582;1099;104239;-78
2023/09/07 06:44:02;;;;;;;16.87;6.83;;;;;;;19.44;68.76;101276.48;124473;1099;104188;-80
2023/09/07 06:46:35;;;;;;;18.77;7.27;;;;;;;19.54;67.87;101278.36;124792;1102;101888;-79
2023/09/07 06:52:09;;;;;;;16.03;7.87;;;;;;;19.67;67.98;101282.95;125268;1102;102434;-83
2023/09/07 06:55:13;;;;;;;19.40;6.80;;;;;;;19.76;66.88;101284.83;125265;1102;104248;-81
2023/09/07 06:58:00;;;;;;;16.70;7.43;;;;;;;19.87;66.61;101283.20;125062;1102;102288;-80
2023/09/07 07:00:38;;;;;;;18.23;7.00;;;;;;;20.04;65.87;101278.03;125260;1102;104178;-78
2023/09/07 07:03:22;;;;;;;14.40;6.30;;;;;;;20.18;65.83;101279.91;125742;1099;101780;-79
2023/09/07 07:06:10;;;;;;;16.47;6.27;;;;;;;20.35;65.07;101280.96;125772;1099;104207;-78
2023/09/07 07:08:43;;;;;;;17.80;7.07;;;;;;;20.56;65.73;101279.33;125360;1101;103091;-78
2023/09/07 07:11:28;;;;;;;16.82;6.60;;;;;;;20.74;64.24;101283.91;124731;1102;102308;-77
2023/09/07 07:14:00;;;;;;;16.50;7.30;;;;;;;20.91;63.82;101278.67;124524;1102;104236;-76
2023/09/07 07:16:36;;;;;;;14.83;6.30;;;;;;;21.08;63.46;101279.64;125421;1102;104304;-80
2023/09/07 07:19:11;;;;;;;18.30;6.90;;;;;;;21.29;64.23;101281.53;124611;1102;102146;-77
2023/09/07 07:21:46;;;;;;;12.95;6.25;;;;;;;21.46;64.51;101276.25;124440;1102;101932;-79
2023/09/07 07:24:23;;;;;;;15.23;6.43;;;;;;;21.71;63.24;101284.37;125075;1102;102047;-75
2023/09/07 07:26:57;;;;;;;15.47;6.73;;;;;;;21.89;63.37;101275.48;124278;1102;104235;-77
2023/09/07 07:29:51;;;;;;;15.58;6.55;;;;;;;22.10;62.66;101269.27;124434;1102;104198;-78
2023/09/07 07:32:29;;;;;;;18.07;7.20;;;;;;;22.29;62.83;101270.16;124442;1102;104223;-75
2023/09/07 07:35:11;;;;;;;15.65;6.90;;;;;;;22.41;62.94;101270.19;124719;1099;104235;-80
2023/09/07 07:38:07;;;;;;;15.33;6.50;;;;;;;22.60;62.28;101276.39;125538;1099;101996;-86
2023/09/07 07:40:55;;;;;;;17.73;6.43;;;;;;;22.83;62.09;101267.44;125457;1099;104267;-79
2023/09/07 07:43:28;;;;;;;18.02;5.90;;;;;;;22.98;61.85;101270.07;125745;1099;101914;-80
2023/09/07 07:46:00;;;;;;;17.42;6.30;;;;;;;23.08;61.33;101260.25;124778;1099;102417;-79
2023/09/07 07:48:37;;;;;;;13.97;5.90;;;;;;;23.16;61.09;101265.56;126164;1099;101898;-80
2023/09/07 07:51:10;;;;;;;13.17;6.10;;;;;;;23.22;60.51;101254.83;124609;1099;104424;-81
2023/09/07 07:53:43;;;;;;;14.10;5.80;;;;;;;23.54;60.28;101261.80;124600;1099;104182;-77
2023/09/07 07:56:25;;;;;;;15.50;6.10;;;;;;;23.81;59.30;101254.47;124594;1099;101908;-80
2023/09/07 07:58:58;;;;;;;14.17;5.83;;;;;;;24.00;58.95;101256.16;125047;1099;101836;-78
2023/09/07 08:01:32;;;;;;;16.77;6.03;;;;;;;24.10;58.53;101254.28;124572;1099;104156;-78
2023/09/07 08:04:04;;;;;;;16.37;6.03;;;;;;;24.27;57.57;101251.45;125037;1099;104415;-78
2023/09/07 08:06:44;;;;;;;11.13;5.30;;;;;;;24.32;57.49;101254.09;126273;1098;104188;-79
2023/09/07 08:09:20;;;;;;;10.97;5.70;;;;;;;24.42;56.43;101247.75;124904;1099;102042;-80
2023/09/07 08:11:55;;;;;;;8.50;4.97;;;;;;;24.58;56.24;101252.08;125539;1099;101960;-81
2023/09/07 08:14:34;;;;;;;14.30;5.47;;;;;;;24.64;56.04;101252.94;124730;1099;104239;-78
2023/09/07 08:17:11;;;;;;;10.80;5.40;;;;;;;24.69;55.78;101251.97;124700;1099;104297;-80
2023/09/07 08:19:48;;;;;;;14.27;5.43;;;;;;;24.82;55.23;101250.02;125475;1099;102029;-80
2023/09/07 08:22:36;;;;;;;13.33;5.50;;;;;;;24.93;54.45;101250.81;125752;1098;104236;-81
2023/09/07 08:25:12;;;;;;;12.93;5.07;;;;;;;25.02;54.59;101241.73;126849;1098;102095;-81
2023/09/07 08:27:47;;;;;;;10.80;4.97;;;;;;;25.10;54.62;101241.64;125891;1099;102365;-80
2023/09/07 08:30:27;;;;;;;14.90;5.60;;;;;;;25.30;54.89;101234.23;126307;1099;104219;-84
2023/09/07 08:33:05;;;;;;;11.03;5.17;;;;;;;25.45;54.46;101233.14;126704;1098;104172;-79
2023/09/07 08:35:43;;;;;;;11.28;5.40;;;;;;;25.58;54.52;101228.47;124645;1099;102344;-80
2023/09/07 08:38:19;;;;;;;9.53;5.10;;;;;;;25.68;54.50;101234.61;126368;1098;104291;-80
2023/09/07 08:40:57;;;;;;;10.63;4.77;;;;;;;25.79;53.87;101221.01;126706;1098;104278;-82
2023/09/07 08:43:34;;;;;;;10.43;4.77;;;;;;;25.88;53.52;101223.52;125784;1099;104227;-79
2023/09/07 08:46:16;;;;;;;9.57;4.80;;;;;;;25.91;52.87;101222.59;125709;1098;104203;-78
2023/09/07 08:48:59;;;;;;;8.03;3.80;;;;;;;25.89;52.05;101227.99;125071;1099;104561;-82
2023/09/07 08:51:42;;;;;;;8.70;3.93;;;;;;;25.90;51.65;101216.34;126485;1098;101794;-80
2023/09/07 08:54:19;;;;;;;6.10;3.70;;;;;;;25.94;50.65;101220.73;126529;1099;102665;-82
2023/09/07 08:57:04;;;;;;;;;;;;;;;;;;;;;
2023/09/07 08:59:42;;;;;;;7.40;3.97;;;;;;;26.22;48.43;101219.41;127027;1098;101768;-85
2023/09/07 09:02:17;;;;;;;6.37;4.20;;;;;;;26.35;48.91;101213.78;126263;1098;104207;-81
2023/09/07 09:05:04;;;;;;;7.63;3.73;;;;;;;26.39;48.56;101214.60;126100;1099;102063;-81
2023/09/07 09:07:51;;;;;;;6.03;3.50;;;;;;;26.52;47.96;101208.09;126005;1099;104229;-80
2023/09/07 09:10:23;;;;;;;8.40;3.87;;;;;;;26.61;48.63;101198.92;126668;1098;101773;-78
2023/09/07 09:12:59;;;;;;;8.20;3.70;;;;;;;26.67;48.55;101201.53;124842;1099;104239;-78
2023/09/07 09:15:31;;;;;;;6.63;3.80;;;;;;;26.79;48.43;101194.14;124721;1098;104248;-76
2023/09/07 09:18:18;;;;;;;7.50;3.97;;;;;;;26.89;48.39;101203.78;124910;1099;101905;-78
2023/09/07 09:20:51;;;;;;;8.43;3.77;;;;;;;26.96;47.87;101196.45;126372;1098;101950;-80
2023/09/07 09:23:26;;;;;;;6.87;3.80;;;;;;;26.97;46.55;101199.11;126480;1098;107407;-81
2023/09/07 09:26:06;;;;;;;5.97;3.60;;;;;;;27.08;46.87;101193.50;126284;1098;102000;-81
2023/09/07 09:29:15;;;;;;;8.77;3.83;;;;;;;27.19;46.18;101196.86;125936;1098;102178;-84
2023/09/07 09:35:06;;;;;;;4.50;2.73;;;;;;;27.10;44.69;101194.38;126241;1099;104409;-82
2023/09/07 09:38:07;;;;;;;4.33;2.47;;;;;;;27.17;42.43;101187.03;127392;1098;101626;-81
2023/09/07 09:40:41;;;;;;;3.90;2.57;;;;;;;27.04;41.01;101191.81;126786;1098;102299;-83
2023/09/07 09:43:20;;;;;;;3.63;2.83;;;;;;;26.92;40.29;101186.69;125848;1099;102097;-83
2023/09/07 09:46:00;;;;;;;4.27;2.60;;;;;;;26.83;40.79;101180.59;126767;1099;101791;-83
2023/09/07 09:51:27;;;;;;;;;;;;;;;26.69;38.73;101179.97;127442;1098;101705;-80
2023/09/07 09:54:11;;;;;;;4.90;2.87;;;;;;;26.74;40.57;101178.09;127032;1098;104105;-81
2023/09/07 09:56:44;;;;;;;6.95;2.80;;;;;;;26.90;40.10;101182.21;125260;1099;104320;-76
2023/09/07 09:59:26;;;;;;;5.03;3.07;;;;;;;27.06;40.28;101173.80;125130;1099;101900;-79
2023/09/07 10:02:01;;;;;;;10.83;3.60;;;;;;;27.18;39.90;101168.14;126759;1098;101951;-82
2023/09/07 10:04:36;;;;;;;5.97;3.47;;;;;;;27.36;39.74;101168.66;126774;1098;107133;-81
2023/09/07 10:07:10;;;;;;;4.60;3.40;;;;;;;27.39;40.17;101168.59;126412;1098;101833;-82
2023/09/07 10:09:46;;;;;;;4.85;3.12;;;;;;;27.22;39.93;101167.16;126251;1099;103834;-83
2023/09/07 10:12:45;;;;;;;7.27;3.20;;;;;;;27.08;40.25;101170.16;126494;1098;101792;-82
2023/09/07 10:15:29;;;;;;;6.50;3.60;;;;;;;27.18;40.24;101160.06;125989;1099;118995;-81
2023/09/07 10:18:12;;;;;;;5.30;3.40;;;;;;;27.32;39.82;101161.59;126656;1098;101840;-80
2023/09/07 10:20:57;;;;;;;8.17;3.57;;;;;;;27.43;39.51;101170.30;126462;1099;104124;-84
2023/09/07 10:23:47;;;;;;;5.60;3.23;;;;;;;27.55;39.59;101164.62;125844;1098;104185;-79
2023/09/07 10:26:23;;;;;;;8.10;3.10;;;;;;;27.65;39.43;101172.48;125099;1099;104265;-81
2023/09/07 10:29:05;;;;;;;8.13;3.92;;;;;;;27.73;38.87;101155.17;125245;1098;102474;-79
2023/09/07 10:31:51;;;;;;;8.90;3.70;;;;;;;27.86;39.53;101153.06;124924;1099;104175;-81
2023/09/07 10:34:39;;;;;;;6.23;3.80;;;;;;;27.89;38.88;101149.38;125879;1099;104195;-80
2023/09/07 10:37:13;;;;;;;8.23;3.70;;;;;;;27.86;37.99;101155.77;125560;1099;102032;-81
2023/09/07 10:39:58;;;;;;;6.85;3.70;;;;;;;27.77;38.29;101158.69;126121;1098;101810;-80
2023/09/07 10:45:26;;;;;;;7.65;3.50;;;;;;;27.55;38.20;101148.44;126008;1099;104245;-82
2023/09/07 10:48:00;;;;;;;5.47;3.60;;;;;;;27.73;38.56;101143.51;125783;1099;104158;-81
2023/09/07 10:50:47;;;;;;;6.17;4.00;;;;;;;27.69;38.71;101140.02;125841;1099;101788;-79
2023/09/07 10:53:28;;;;;;;9.20;3.90;;;;;;;27.59;38.25;101141.16;124807;1099;102259;-80
2023/09/07 10:56:10;;;;;;;7.20;3.80;;;;;;;27.71;38.25;101134.58;125277;1099;117587;-80
2023/09/07 10:58:53;;;;;;;8.20;3.90;;;;;;;27.83;38.47;101125.27;124488;1099;102104;-80
2023/09/07 11:01:25;;;;;;;;;;;;;;;28.03;37.54;101132.87;124937;1099;104166;-78
2023/09/07 11:04:26;;;;;;;12.10;3.87;;;;;;;28.25;38.25;101125.97;126139;1098;104085;-83
2023/09/07 11:07:08;;;;;;;7.30;4.00;;;;;;;28.37;38.12;101127.42;125835;1099;101810;-81
2023/09/07 11:09:44;;;;;;;6.77;4.10;;;;;;;28.44;38.44;101117.36;125942;1099;101895;-80
2023/09/07 11:12:43;;;;;;;9.23;4.00;;;;;;;28.60;38.16;101113.29;126368;1099;104165;-79
2023/09/07 11:15:31;;;;;;;5.50;3.70;;;;;;;28.64;38.07;101114.08;125801;1099;104277;-83
2023/09/07 11:18:35;;;;;;;7.03;3.70;;;;;;;28.58;36.99;101117.86;125195;1099;102172;-79
2023/09/07 11:21:24;;;;;;;5.60;3.60;;;;;;;28.52;36.81;101112.61;126766;1098;101784;-80
2023/09/07 11:27:08;;;;;;;6.70;3.97;;;;;;;28.39;37.19;101108.48;125256;1099;107472;-79
2023/09/07 11:29:58;;;;;;;7.63;4.30;;;;;;;28.39;36.89;101105.78;125441;1099;104217;-82
2023/09/07 11:32:39;;;;;;;7.33;3.83;;;;;;;28.34;37.45;101114.02;126311;1099;104163;-79
2023/09/07 11:35:39;;;;;;;6.93;3.70;;;;;;;28.15;37.51;101110.95;125749;1099;104319;-79
2023/09/07 11:38:33;;;;;;;6.87;4.17;;;;;;;27.97;37.63;101101.55;124389;1099;102399;-79
2023/09/07 11:41:15;;;;;;;9.43;4.10;;;;;;;27.92;37.33;101106.16;126633;1098;104165;-82
2023/09/07 11:43:49;;;;;;;5.20;3.70;;;;;;;27.97;37.35;101106.94;125485;1099;102031;-83
2023/09/07 11:46:23;;;;;;;7.47;4.07;;;;;;;28.03;37.48;101105.90;125981;1099;104169;-84
2023/09/07 11:48:57;;;;;;;6.83;4.03;;;;;;;28.07;37.21;101102.20;126873;1098;102023;-83
2023/09/07 11:51:29;;;;;;;7.20;3.50;;;;;;;28.09;37.45;101094.94;125742;1099;104165;-78
2023/09/07 11:54:02;;;;;;;9.63;3.90;;;;;;;28.09;37.37;101105.73;126059;1099;104179;-80
2023/09/07 11:56:39;;;;;;;9.00;4.50;;;;;;;28.13;37.61;101093.94;126261;1099;104224;-79
2023/09/07 11:59:18;;;;;;;10.07;4.33;;;;;;;28.20;37.39;101102.73;126350;1099;104118;-78